Time;durP1;ratioP1;P1;durP2;ratioP2;P2;SDS_P1;SDS_P2;PMS_P1;PMS_P2;Temp;Humidity;BMP_temperature;BMP_pressure;BME280_temperature;BME280_humidity;BME280_pressure;Samples;Min_cycle;Max_cycle;Signal;HPM_P1;HPM_P2
2023/04/11 00:02:13;;;;;;;4.45;1.25;;;7.00;99.90;;;;;;5070174;28;20048;-55
2023/04/11 00:04:38;;;;;;;4.85;1.33;;;6.70;99.90;;;;;;5072170;28;20086;-54
2023/04/11 00:07:06;;;;;;;6.80;1.40;;;7.30;99.90;;;;;;5071831;28;20032;-55
2023/04/11 00:09:32;;;;;;;9.35;1.58;;;7.50;99.90;;;;;;5071573;28;20089;-51
2023/04/11 00:11:58;;;;;;;5.60;1.10;;;7.20;99.90;;;;;;5071969;28;20087;-51
2023/04/11 00:14:24;;;;;;;8.40;1.60;;;7.20;99.90;;;;;;5071209;28;20190;-57
2023/04/11 00:16:52;;;;;;;9.48;1.70;;;6.50;99.90;;;;;;5070380;28;20036;-54
2023/04/11 00:19:22;;;;;;;7.47;1.42;;;7.10;99.90;;;;;;5070932;28;20040;-52
2023/04/11 00:21:51;;;;;;;7.80;2.72;;;6.70;99.90;;;;;;5069774;28;20067;-55
2023/04/11 00:24:16;;;;;;;13.55;2.00;;;7.30;99.90;;;;;;5068761;28;20162;-56
2023/04/11 00:26:42;;;;;;;8.15;1.70;;;7.40;99.90;;;;;;5071559;28;20127;-53
2023/04/11 00:29:08;;;;;;;9.32;1.90;;;7.40;99.90;;;;;;5069371;28;20417;-52
2023/04/11 00:31:34;;;;;;;7.10;2.00;;;7.60;99.90;;;;;;5069955;28;20513;-54
2023/04/11 00:34:00;;;;;;;9.63;1.95;;;6.60;99.90;;;;;;5069217;28;20557;-55
2023/04/11 00:36:25;;;;;;;9.27;1.90;;;7.40;99.90;;;;;;5070649;28;20033;-55
2023/04/11 00:38:51;;;;;;;13.07;2.28;;;6.80;99.90;;;;;;5070113;28;20033;-54
2023/04/11 00:41:17;;;;;;;11.85;1.92;;;6.60;99.90;;;;;;5070835;28;20105;-52
2023/04/11 00:43:43;;;;;;;12.00;2.17;;;6.70;99.90;;;;;;5069586;28;20042;-56
2023/04/11 00:46:09;;;;;;;10.45;2.33;;;6.60;99.90;;;;;;5069767;28;20543;-54
2023/04/11 00:48:35;;;;;;;11.75;2.05;;;7.50;99.90;;;;;;5070808;28;20044;-55
2023/04/11 00:51:01;;;;;;;8.52;2.05;;;6.70;99.90;;;;;;5069442;28;20088;-57
2023/04/11 00:53:31;;;;;;;12.35;3.08;;;7.30;99.90;;;;;;5065583;28;20059;-52
2023/04/11 00:55:59;;;;;;;8.18;1.92;;;6.70;99.90;;;;;;5068881;28;20542;-54
2023/04/11 00:58:25;;;;;;;9.52;2.25;;;6.60;99.90;;;;;;5070937;28;20067;-56
2023/04/11 01:00:51;;;;;;;14.93;2.55;;;6.60;99.90;;;;;;5068017;28;20049;-55
2023/04/11 01:03:17;;;;;;;11.23;2.67;;;7.30;99.90;;;;;;5070982;28;20090;-50
2023/04/11 01:05:44;;;;;;;11.32;2.72;;;7.40;99.90;;;;;;5068191;28;20044;-53
2023/04/11 01:08:10;;;;;;;9.23;2.95;;;7.00;99.90;;;;;;5070730;28;20067;-55
2023/04/11 01:10:37;;;;;;;8.98;2.40;;;7.40;99.90;;;;;;5064056;28;20779;-55
2023/04/11 01:13:02;;;;;;;11.50;3.17;;;6.70;99.90;;;;;;5068685;28;20051;-56
2023/04/11 01:15:28;;;;;;;19.63;3.08;;;6.80;99.90;;;;;;5070870;28;20328;-56
2023/04/11 01:17:56;;;;;;;9.45;2.60;;;6.90;99.90;;;;;;5070405;28;20101;-53
2023/04/11 01:20:23;;;;;;;15.82;3.08;;;7.60;99.90;;;;;;5070354;28;20128;-53
2023/04/11 01:22:49;;;;;;;8.80;2.70;;;6.90;99.90;;;;;;5070111;28;20456;-56
2023/04/11 01:25:17;;;;;;;13.32;2.88;;;7.00;99.90;;;;;;5069016;28;20093;-51
2023/04/11 01:27:43;;;;;;;10.63;2.80;;;6.90;99.90;;;;;;5069305;28;20040;-56
2023/04/11 01:30:11;;;;;;;12.90;2.70;;;7.00;99.90;;;;;;5069925;28;20037;-56
2023/04/11 01:32:37;;;;;;;9.75;2.60;;;6.90;99.90;;;;;;5070386;28;20047;-48
2023/04/11 01:35:04;;;;;;;15.75;2.92;;;6.80;99.90;;;;;;5067855;28;20523;-54
2023/04/11 01:37:29;;;;;;;11.65;3.17;;;7.50;99.90;;;;;;5069767;28;20041;-54
2023/04/11 01:39:55;;;;;;;14.88;3.08;;;7.70;99.90;;;;;;5070086;28;20395;-52
2023/04/11 01:42:21;;;;;;;15.57;3.10;;;7.10;99.90;;;;;;5069076;28;20043;-56
2023/04/11 01:44:50;;;;;;;16.55;3.00;;;7.50;99.90;;;;;;5070109;28;20102;-52
2023/04/11 01:47:16;;;;;;;17.70;2.92;;;7.00;99.90;;;;;;5069596;28;20037;-55
2023/04/11 01:49:42;;;;;;;23.95;3.40;;;7.60;99.90;;;;;;5070056;28;20032;-57
2023/04/11 01:52:08;;;;;;;15.88;2.40;;;7.70;99.90;;;;;;5066963;28;20479;-56
2023/04/11 01:54:34;;;;;;;20.13;3.75;;;7.70;99.90;;;;;;5068823;28;20037;-58
2023/04/11 01:57:00;;;;;;;25.58;3.03;;;7.20;99.90;;;;;;5052044;28;20051;-56
2023/04/11 01:59:26;;;;;;;19.27;3.30;;;7.80;99.90;;;;;;5069587;28;20044;-56
2023/04/11 02:01:51;;;;;;;18.35;3.10;;;8.10;99.90;;;;;;5070031;28;20086;-54
2023/04/11 02:04:17;;;;;;;21.02;2.67;;;8.10;99.90;;;;;;5070310;28;20102;-53
2023/04/11 02:06:43;;;;;;;20.35;3.05;;;8.10;99.90;;;;;;5069474;28;20063;-56
2023/04/11 02:09:08;;;;;;;23.50;2.80;;;7.60;99.90;;;;;;5070450;28;20040;-52
2023/04/11 02:11:34;;;;;;;18.15;3.45;;;8.10;99.90;;;;;;5068813;28;20079;-53
2023/04/11 02:14:01;;;;;;;21.48;2.80;;;7.80;99.90;;;;;;5070275;28;20051;-52
2023/04/11 02:16:28;;;;;;;18.35;2.97;;;8.20;99.90;;;;;;5070297;28;21003;-55
2023/04/11 02:18:55;;;;;;;14.63;2.78;;;8.20;99.90;;;;;;5070384;28;20047;-57
2023/04/11 02:21:21;;;;;;;17.48;3.13;;;8.30;99.90;;;;;;5069829;28;20519;-56
2023/04/11 02:23:47;;;;;;;11.23;2.70;;;7.90;99.90;;;;;;5069485;28;20051;-54
2023/04/11 02:26:13;;;;;;;18.63;3.17;;;8.30;99.90;;;;;;5069860;28;20033;-56
2023/04/11 02:28:38;;;;;;;15.60;2.70;;;8.30;99.90;;;;;;5069615;28;20036;-54
2023/04/11 02:31:04;;;;;;;13.15;2.70;;;8.30;99.90;;;;;;5070268;28;20040;-57
2023/04/11 02:33:31;;;;;;;12.38;2.35;;;7.90;99.90;;;;;;5070143;28;20036;-51
2023/04/11 02:35:56;;;;;;;16.40;2.90;;;7.90;99.90;;;;;;5070144;28;20044;-56
2023/04/11 02:38:22;;;;;;;17.63;3.13;;;7.90;99.90;;;;;;5068466;28;20041;-52
2023/04/11 02:40:48;;;;;;;16.88;4.47;;;8.40;99.90;;;;;;5069841;28;20039;-55
2023/04/11 02:43:15;;;;;;;11.57;2.65;;;8.00;99.90;;;;;;5066692;28;20043;-48
2023/04/11 02:45:40;;;;;;;15.27;2.63;;;8.50;99.90;;;;;;5069215;28;20040;-55
2023/04/11 02:48:07;;;;;;;20.65;3.05;;;8.00;99.90;;;;;;5068384;28;20035;-55
2023/04/11 02:50:32;;;;;;;21.33;2.72;;;8.00;99.90;;;;;;5069596;28;20115;-52
2023/04/11 02:52:58;;;;;;;16.98;2.75;;;8.10;99.90;;;;;;5069775;28;20136;-55
2023/04/11 02:55:24;;;;;;;16.55;2.88;;;8.10;99.90;;;;;;5069869;28;20048;-55
2023/04/11 02:57:50;;;;;;;20.25;2.80;;;8.00;99.90;;;;;;5069967;28;20491;-51
2023/04/11 03:00:18;;;;;;;12.95;2.85;;;8.00;99.90;;;;;;5068205;28;20048;-52
2023/04/11 03:02:44;;;;;;;14.13;1.88;;;8.30;99.90;;;;;;5070990;28;20483;-52
2023/04/11 03:05:10;;;;;;;8.88;1.88;;;8.30;99.90;;;;;;5073344;28;20044;-50
2023/04/11 03:07:37;;;;;;;12.60;1.90;;;8.80;99.90;;;;;;5073101;28;20045;-51
2023/04/11 03:10:03;;;;;;;9.18;1.63;;;8.50;99.90;;;;;;5073363;28;20036;-52
2023/04/11 03:12:29;;;;;;;11.15;1.80;;;8.30;99.90;;;;;;5073222;28;20032;-54
2023/04/11 03:14:54;;;;;;;12.25;1.60;;;8.30;99.90;;;;;;5073306;28;20043;-54
2023/04/11 03:17:20;;;;;;;15.00;1.90;;;8.60;99.90;;;;;;5073135;28;20032;-53
2023/04/11 03:19:46;;;;;;;11.05;1.75;;;8.30;99.90;;;;;;5073508;28;20356;-55
2023/04/11 03:22:12;;;;;;;10.77;1.52;;;8.20;99.90;;;;;;5072351;28;20061;-51
2023/04/11 03:24:38;;;;;;;12.10;1.80;;;8.20;99.90;;;;;;5073091;28;20087;-56
2023/04/11 03:27:04;;;;;;;11.98;2.17;;;8.20;99.90;;;;;;5071325;28;20040;-52
2023/04/11 03:29:31;;;;;;;11.65;1.65;;;8.40;99.90;;;;;;5072523;28;20037;-50
2023/04/11 03:31:57;;;;;;;11.45;1.67;;;8.50;99.90;;;;;;5072343;28;20059;-52
2023/04/11 03:34:24;;;;;;;12.75;1.75;;;8.40;99.90;;;;;;5072893;28;20040;-50
2023/04/11 03:36:50;;;;;;;8.32;1.63;;;8.50;99.90;;;;;;5072543;28;20125;-50
2023/04/11 03:39:17;;;;;;;9.60;1.63;;;8.30;99.90;;;;;;5072686;28;20169;-51
2023/04/11 03:41:43;;;;;;;8.65;1.83;;;8.40;99.90;;;;;;5072659;28;20048;-54
2023/04/11 03:44:09;;;;;;;15.90;1.98;;;8.30;99.90;;;;;;5072561;28;20032;-53
2023/04/11 03:46:34;;;;;;;13.45;2.38;;;8.30;99.90;;;;;;5071414;28;20035;-56
2023/04/11 03:49:00;;;;;;;11.05;1.63;;;8.20;99.90;;;;;;5072357;28;20151;-56
2023/04/11 03:51:26;;;;;;;13.07;2.13;;;8.20;99.90;;;;;;5072366;28;20135;-50
2023/04/11 03:53:51;;;;;;;11.30;2.47;;;8.20;99.90;;;;;;5072732;28;20044;-48
2023/04/11 03:56:17;;;;;;;13.85;2.33;;;8.40;99.90;;;;;;5072278;28;20407;-49
2023/04/11 03:58:43;;;;;;;8.50;1.83;;;8.40;99.90;;;;;;5070903;28;20059;-53
2023/04/11 04:01:08;;;;;;;10.93;2.25;;;8.30;99.90;;;;;;5070403;28;20048;-53
2023/04/11 04:03:34;;;;;;;11.02;2.10;;;8.50;99.90;;;;;;5072671;28;20454;-54
2023/04/11 04:06:00;;;;;;;13.43;2.55;;;8.30;99.90;;;;;;5072290;28;20075;-55
2023/04/11 04:08:25;;;;;;;8.07;1.88;;;8.40;99.90;;;;;;5071917;28;20029;-55
2023/04/11 04:10:51;;;;;;;14.48;2.63;;;8.20;99.90;;;;;;5070754;28;20037;-51
2023/04/11 04:13:17;;;;;;;8.50;2.72;;;8.30;99.90;;;;;;5071600;28;20049;-58
2023/04/11 04:15:43;;;;;;;10.90;2.00;;;8.20;99.90;;;;;;5071405;28;20494;-49
2023/04/11 04:18:08;;;;;;;10.95;1.88;;;8.10;99.90;;;;;;5072017;28;20444;-56
2023/04/11 04:20:34;;;;;;;11.60;2.00;;;8.10;99.90;;;;;;5072045;28;20091;-54
2023/04/11 04:23:00;;;;;;;9.27;2.00;;;8.00;99.90;;;;;;5071263;28;20132;-50
2023/04/11 04:25:25;;;;;;;10.95;2.17;;;8.20;99.90;;;;;;5071776;28;20032;-53
2023/04/11 04:27:52;;;;;;;8.77;1.83;;;8.10;99.90;;;;;;5071954;28;20043;-53
2023/04/11 04:30:20;;;;;;;10.38;2.00;;;8.10;99.90;;;;;;5071021;28;20495;-52
2023/04/11 04:32:46;;;;;;;7.53;2.10;;;8.00;99.90;;;;;;5071534;28;20045;-55
2023/04/11 04:35:15;;;;;;;7.95;2.22;;;8.00;99.90;;;;;;5070052;28;20040;-54
2023/04/11 04:37:44;;;;;;;11.57;1.90;;;8.00;99.90;;;;;;5071216;28;20041;-53
2023/04/11 04:40:12;;;;;;;11.55;1.73;;;8.00;99.90;;;;;;5071505;28;20585;-57
2023/04/11 04:42:40;;;;;;;8.77;1.75;;;8.00;99.90;;;;;;5070865;28;20049;-56
2023/04/11 04:45:07;;;;;;;7.95;1.80;;;8.00;99.90;;;;;;5070326;28;20123;-55
2023/04/11 04:47:36;;;;;;;6.13;1.50;;;7.90;99.90;;;;;;5068772;28;20048;-53
2023/04/11 04:50:02;;;;;;;6.07;1.58;;;7.90;99.90;;;;;;5069940;28;20033;-51
2023/04/11 04:52:28;;;;;;;7.47;1.50;;;7.80;99.90;;;;;;5069652;28;20041;-55
2023/04/11 04:54:58;;;;;;;7.38;1.77;;;8.00;99.90;;;;;;5071238;28;20461;-55
2023/04/11 04:57:28;;;;;;;10.23;2.20;;;7.90;99.90;;;;;;5071271;28;20045;-55
2023/04/11 04:59:55;;;;;;;7.55;1.67;;;8.00;99.90;;;;;;5070976;28;20559;-57
2023/04/11 05:02:20;;;;;;;10.27;2.08;;;7.90;99.90;;;;;;5070689;28;20045;-51
2023/04/11 05:04:50;;;;;;;9.60;1.70;;;7.80;99.90;;;;;;5070371;28;20032;-53
2023/04/11 05:07:19;;;;;;;17.48;1.80;;;8.00;99.90;;;;;;5070772;28;20042;-56
2023/04/11 05:09:45;;;;;;;11.70;2.15;;;7.90;99.90;;;;;;5070824;28;20083;-55
2023/04/11 05:12:12;;;;;;;7.38;1.60;;;7.90;99.90;;;;;;5071571;28;20052;-49
2023/04/11 05:14:38;;;;;;;6.07;2.10;;;7.80;99.90;;;;;;5071400;28;20731;-52
2023/04/11 05:17:04;;;;;;;8.65;1.67;;;7.90;99.90;;;;;;5069655;28;20111;-56
2023/04/11 05:19:31;;;;;;;14.32;1.58;;;8.00;99.90;;;;;;5070379;28;20033;-53
2023/04/11 05:21:56;;;;;;;9.25;1.92;;;7.90;99.90;;;;;;5070255;28;20059;-48
2023/04/11 05:24:22;;;;;;;9.70;1.88;;;7.90;99.90;;;;;;5070445;28;20036;-56
2023/04/11 05:26:48;;;;;;;6.03;1.52;;;7.90;99.90;;;;;;5070528;28;20082;-49
2023/04/11 05:29:14;;;;;;;8.70;1.65;;;8.00;99.90;;;;;;5070032;28;20052;-55
2023/04/11 05:31:40;;;;;;;4.68;1.25;;;8.10;99.90;;;;;;5070310;28;20078;-51
2023/04/11 05:34:05;;;;;;;7.97;1.33;;;8.00;99.90;;;;;;5070280;28;20043;-53
2023/04/11 05:36:31;;;;;;;8.52;1.60;;;8.00;99.90;;;;;;5069456;28;20491;-50
2023/04/11 05:38:57;;;;;;;10.43;1.98;;;8.10;99.90;;;;;;5070747;28;20040;-55
2023/04/11 05:41:23;;;;;;;12.45;1.42;;;8.00;99.90;;;;;;5070527;28;20089;-56
2023/04/11 05:43:49;;;;;;;9.57;1.63;;;8.10;99.90;;;;;;5070169;28;20040;-54
2023/04/11 05:46:15;;;;;;;7.50;2.03;;;8.00;99.90;;;;;;5070103;28;21329;-53
2023/04/11 05:48:41;;;;;;;12.13;1.50;;;8.00;99.90;;;;;;5070405;28;20622;-54
2023/04/11 05:51:07;;;;;;;11.73;1.60;;;7.40;99.90;;;;;;5070397;28;20036;-53
2023/04/11 05:53:33;;;;;;;8.82;1.60;;;8.10;99.90;;;;;;5070664;28;20470;-50
2023/04/11 05:56:00;;;;;;;9.70;1.58;;;8.00;99.90;;;;;;5068367;28;20438;-48
2023/04/11 05:58:26;;;;;;;11.50;1.58;;;8.10;99.90;;;;;;5069105;28;20134;-51
2023/04/11 06:00:51;;;;;;;12.13;2.50;;;8.20;99.90;;;;;;5069512;28;20543;-56
2023/04/11 06:03:17;;;;;;;10.25;1.60;;;8.10;99.90;;;;;;5069301;28;20079;-51
2023/04/11 06:05:43;;;;;;;10.45;1.58;;;8.40;99.90;;;;;;5070484;28;20457;-51
2023/04/11 06:08:09;;;;;;;7.80;1.33;;;8.10;99.90;;;;;;5070615;28;20041;-57
2023/04/11 06:10:34;;;;;;;11.40;1.70;;;8.10;99.90;;;;;;5069767;28;20052;-49
2023/04/11 06:13:00;;;;;;;8.48;1.73;;;8.20;99.90;;;;;;5070171;28;20112;-56
2023/04/11 06:15:26;;;;;;;12.82;1.60;;;8.20;99.90;;;;;;5070121;28;20388;-53
2023/04/11 06:17:53;;;;;;;9.50;1.55;;;8.10;99.90;;;;;;5069287;28;20387;-58
2023/04/11 06:20:20;;;;;;;10.02;1.55;;;8.20;99.90;;;;;;5070087;28;20072;-56
2023/04/11 06:22:50;;;;;;;11.65;1.50;;;8.20;99.90;;;;;;5069836;28;20045;-52
2023/04/11 06:25:16;;;;;;;9.13;1.50;;;8.20;99.90;;;;;;5069741;28;20040;-59
2023/04/11 06:27:42;;;;;;;9.88;1.33;;;8.20;99.90;;;;;;5069846;28;20111;-56
2023/04/11 06:30:08;;;;;;;8.82;1.60;;;8.20;99.90;;;;;;5061636;28;20567;-53
2023/04/11 06:32:34;;;;;;;5.72;1.00;;;8.20;99.90;;;;;;5065021;28;20123;-58
2023/04/11 06:35:00;;;;;;;7.13;1.38;;;8.30;99.90;;;;;;5063255;28;20127;-54
2023/04/11 06:37:26;;;;;;;10.15;1.95;;;8.20;99.90;;;;;;5063095;28;20094;-50
2023/04/11 06:39:52;;;;;;;8.15;1.40;;;8.30;99.90;;;;;;5069743;28;20063;-55
2023/04/11 06:42:17;;;;;;;14.27;1.85;;;8.30;99.90;;;;;;5060991;28;20048;-52
2023/04/11 06:44:45;;;;;;;9.18;1.35;;;8.30;99.90;;;;;;5062944;28;20036;-54
2023/04/11 06:47:10;;;;;;;9.85;1.67;;;8.30;99.90;;;;;;5074181;28;20052;-48
2023/04/11 06:49:36;;;;;;;9.18;1.60;;;8.40;99.90;;;;;;5061018;28;20036;-56
2023/04/11 06:52:02;;;;;;;9.60;1.52;;;8.30;99.90;;;;;;5072642;28;20126;-54
2023/04/11 06:54:28;;;;;;;8.48;1.25;;;8.30;99.90;;;;;;5074092;28;20105;-48
2023/04/11 06:56:56;;;;;;;10.27;1.75;;;8.30;99.90;;;;;;5073597;28;20127;-57
2023/04/11 06:59:21;;;;;;;9.50;1.48;;;8.30;99.90;;;;;;5072733;28;20887;-51
2023/04/11 07:01:48;;;;;;;12.38;1.63;;;8.40;99.90;;;;;;5071884;28;20040;-53
2023/04/11 07:04:14;;;;;;;9.63;1.30;;;8.40;99.90;;;;;;5073449;28;20056;-50
2023/04/11 07:06:40;;;;;;;10.88;1.50;;;8.40;99.90;;;;;;5066615;28;20113;-54
2023/04/11 07:09:06;;;;;;;10.30;1.40;;;8.40;99.90;;;;;;5063544;28;20089;-49
2023/04/11 07:11:32;;;;;;;7.38;1.35;;;8.40;99.90;;;;;;5061784;28;20039;-54
2023/04/11 07:13:59;;;;;;;10.40;1.35;;;8.40;99.90;;;;;;5059791;28;20514;-56
2023/04/11 07:16:25;;;;;;;9.57;1.40;;;8.50;99.90;;;;;;5060633;28;20041;-48
2023/04/11 07:18:52;;;;;;;11.55;2.17;;;8.60;99.90;;;;;;5060332;28;20032;-54
2023/04/11 07:21:18;;;;;;;13.88;2.08;;;8.60;99.90;;;;;;5063059;28;20056;-51
2023/04/11 07:23:43;;;;;;;10.90;1.30;;;8.60;99.90;;;;;;5062488;28;20494;-50
2023/04/11 07:26:10;;;;;;;13.98;1.67;;;8.60;99.90;;;;;;5059193;28;20044;-57
2023/04/11 07:28:40;;;;;;;12.07;1.55;;;8.60;99.90;;;;;;5058755;28;20400;-56
2023/04/11 07:31:06;;;;;;;9.68;1.45;;;8.70;99.90;;;;;;5058181;28;20037;-49
2023/04/11 07:33:36;;;;;;;8.73;1.60;;;8.70;99.90;;;;;;5060717;28;20178;-51
2023/04/11 07:36:03;;;;;;;9.35;1.63;;;8.70;99.90;;;;;;5059270;28;20097;-51
2023/04/11 07:38:28;;;;;;;11.90;2.45;;;8.70;99.90;;;;;;5060494;28;20048;-50
2023/04/11 07:40:55;;;;;;;9.43;1.80;;;8.80;99.90;;;;;;5060103;28;20624;-54
2023/04/11 07:43:22;;;;;;;9.85;1.75;;;8.80;99.90;;;;;;5059223;28;20047;-56
2023/04/11 07:45:47;;;;;;;8.68;1.67;;;8.80;99.90;;;;;;5059109;28;20029;-53
2023/04/11 07:48:13;;;;;;;12.05;1.73;;;8.90;99.90;;;;;;5059908;28;20554;-52
2023/04/11 07:50:39;;;;;;;12.70;2.17;;;8.80;99.90;;;;;;5059210;28;20118;-48
2023/04/11 07:53:05;;;;;;;8.20;1.90;;;8.90;99.90;;;;;;5059046;28;20048;-48
2023/04/11 07:55:30;;;;;;;10.90;1.63;;;9.00;99.90;;;;;;5059659;28;20025;-53
2023/04/11 07:57:56;;;;;;;10.25;1.70;;;9.00;99.90;;;;;;5060336;28;20127;-57
2023/04/11 08:00:22;;;;;;;7.65;1.50;;;9.10;99.90;;;;;;5058437;28;20476;-57
2023/04/11 08:02:49;;;;;;;13.32;1.70;;;9.10;99.90;;;;;;5057929;28;20171;-51
2023/04/11 08:05:15;;;;;;;12.63;2.10;;;9.30;99.90;;;;;;5056442;28;20029;-56
2023/04/11 08:07:41;;;;;;;10.75;1.45;;;9.40;99.90;;;;;;5059336;28;20101;-58
2023/04/11 08:10:07;;;;;;;13.52;1.83;;;9.40;99.90;;;;;;5057748;28;20069;-58
2023/04/11 08:12:33;;;;;;;11.10;2.80;;;9.50;99.90;;;;;;5058993;28;20085;-53
2023/04/11 08:14:59;;;;;;;13.70;2.00;;;9.50;99.90;;;;;;5062377;28;20048;-56
2023/04/11 08:17:27;;;;;;;9.93;1.52;;;9.40;99.90;;;;;;5062155;28;20166;-56
2023/04/11 08:19:54;;;;;;;10.43;1.98;;;9.50;99.90;;;;;;5058940;28;20041;-54
2023/04/11 08:22:20;;;;;;;10.55;1.90;;;9.50;99.90;;;;;;5060586;28;20564;-54
2023/04/11 08:24:45;;;;;;;11.75;2.13;;;9.60;99.90;;;;;;5056509;28;20029;-51
2023/04/11 08:27:11;;;;;;;9.55;1.83;;;9.70;99.90;;;;;;5064214;28;20112;-52
2023/04/11 08:29:36;;;;;;;11.68;1.60;;;9.80;99.90;;;;;;5069096;28;20376;-57
2023/04/11 08:32:03;;;;;;;7.63;1.33;;;9.70;99.90;;;;;;5059733;28;20043;-55
2023/04/11 08:34:32;;;;;;;8.98;1.85;;;9.70;99.90;;;;;;5071426;28;20040;-53
2023/04/11 08:36:57;;;;;;;8.18;1.65;;;9.50;99.90;;;;;;5070184;28;20463;-54
2023/04/11 08:39:23;;;;;;;11.30;1.30;;;9.50;99.90;;;;;;5071597;28;20048;-57
2023/04/11 08:41:49;;;;;;;9.60;2.03;;;9.40;99.90;;;;;;5069842;28;20052;-53
2023/04/11 08:44:15;;;;;;;11.80;1.75;;;9.40;99.90;;;;;;5071410;28;20036;-57
2023/04/11 08:46:41;;;;;;;11.85;1.80;;;9.30;99.90;;;;;;5071223;28;20139;-54
2023/04/11 08:49:07;;;;;;;12.27;1.85;;;9.30;99.90;;;;;;5069844;28;20525;-58
2023/04/11 08:51:33;;;;;;;13.30;2.33;;;9.50;99.90;;;;;;5053089;28;20079;-54
2023/04/11 08:54:03;;;;;;;10.73;1.83;;;9.50;99.90;;;;;;5067069;28;20441;-54
2023/04/11 08:56:29;;;;;;;12.77;2.03;;;9.50;99.90;;;;;;5070737;28;20047;-56
2023/04/11 08:58:55;;;;;;;11.38;2.00;;;9.30;99.90;;;;;;5068933;28;20119;-54
2023/04/11 09:01:27;;;;;;;14.70;1.80;;;9.30;99.90;;;;;;5062801;28;20045;-54
2023/04/11 09:03:53;;;;;;;14.15;1.92;;;9.40;99.90;;;;;;5068559;28;20040;-54
2023/04/11 09:06:19;;;;;;;10.23;1.80;;;9.50;99.90;;;;;;5069589;28;20187;-53
2023/04/11 09:08:45;;;;;;;9.57;1.60;;;9.70;99.90;;;;;;5070740;28;20157;-51
2023/04/11 09:11:11;;;;;;;14.52;1.83;;;9.80;99.90;;;;;;5071076;28;20066;-53
2023/04/11 09:13:37;;;;;;;10.98;1.92;;;10.10;99.90;;;;;;5070624;28;20146;-51
2023/04/11 09:16:11;;;;;;;12.73;1.90;;;10.20;99.90;;;;;;5070641;28;20123;-54
2023/04/11 09:18:42;;;;;;;6.55;1.60;;;10.00;99.90;;;;;;5070508;28;20036;-51
2023/04/11 09:21:10;;;;;;;8.05;1.98;;;9.80;99.90;;;;;;5070302;28;20116;-52
2023/04/11 09:23:36;;;;;;;8.02;1.60;;;9.90;99.90;;;;;;5069813;28;20044;-51
2023/04/11 09:26:05;;;;;;;11.57;2.03;;;10.20;99.90;;;;;;5070432;28;20632;-55
2023/04/11 09:28:49;;;;;;;5.53;1.20;;;10.20;99.90;;;;;;5070747;28;20116;-51
2023/04/11 09:31:15;;;;;;;11.45;2.00;;;10.20;99.90;;;;;;5066435;28;20447;-52
2023/04/11 09:33:55;;;;;;;11.88;2.53;;;10.00;99.90;;;;;;5063166;28;20131;-52
2023/04/11 09:36:23;;;;;;;8.70;1.52;;;9.90;99.90;;;;;;5070060;28;20036;-50
2023/04/11 09:38:50;;;;;;;11.23;1.95;;;10.10;99.90;;;;;;5070157;28;20123;-56
2023/04/11 09:41:31;;;;;;;8.98;1.67;;;10.00;99.90;;;;;;5070110;28;20037;-54
2023/04/11 09:43:57;;;;;;;11.52;1.80;;;9.90;99.90;;;;;;5070542;28;20044;-54
2023/04/11 09:46:24;;;;;;;17.88;3.15;;;9.90;99.90;;;;;;5068686;28;20029;-55
2023/04/11 09:48:51;;;;;;;8.50;1.98;;;10.00;99.90;;;;;;5070114;28;20036;-49
2023/04/11 09:51:18;;;;;;;11.95;1.73;;;10.30;99.90;;;;;;5070456;28;20115;-53
2023/04/11 09:53:44;;;;;;;12.88;2.00;;;10.50;99.90;;;;;;5070439;28;20548;-55
2023/04/11 09:56:10;;;;;;;11.93;1.92;;;10.70;99.90;;;;;;5070344;28;20059;-55
2023/04/11 09:58:38;;;;;;;10.77;1.83;;;10.60;99.90;;;;;;5062563;28;20415;-52
2023/04/11 10:01:09;;;;;;;12.45;1.55;;;10.40;99.90;;;;;;5069695;28;20127;-55
2023/04/11 10:03:37;;;;;;;7.57;1.92;;;10.50;99.90;;;;;;5069377;28;20392;-52
2023/04/11 10:06:21;;;;;;;11.10;1.80;;;10.60;99.90;;;;;;5068651;28;20068;-53
2023/04/11 10:08:48;;;;;;;;;;;10.70;99.90;;;;;;5070709;28;20094;-58
2023/04/11 10:11:17;;;;;;;8.80;1.80;;;10.60;99.90;;;;;;5069727;28;19992;-52
2023/04/11 10:13:44;;;;;;;11.30;2.17;;;10.60;99.90;;;;;;5073999;28;20071;-53
2023/04/11 10:16:21;;;;;;;9.75;1.90;;;10.60;99.90;;;;;;5073761;28;20048;-49
2023/04/11 10:19:07;;;;;;;9.38;1.92;;;10.60;99.90;;;;;;5074146;28;20429;-57
2023/04/11 10:21:32;;;;;;;10.77;2.00;;;10.70;99.90;;;;;;5062150;28;20503;-55
2023/04/11 10:24:20;;;;;;;11.68;2.03;;;10.00;99.90;;;;;;5074281;28;20049;-52
2023/04/11 10:26:59;;;;;;;18.50;2.05;;;10.80;99.90;;;;;;5072530;28;20040;-57
2023/04/11 10:32:16;;;;;;;9.68;1.70;;;11.00;99.90;;;;;;5072164;28;20353;-53
2023/04/11 10:34:53;;;;;;;14.55;2.00;;;11.00;99.90;;;;;;5069742;28;20036;-56
2023/04/11 10:37:28;;;;;;;9.40;1.73;;;10.90;99.90;;;;;;5073445;28;20044;-58
2023/04/11 10:39:56;;;;;;;10.07;1.70;;;10.90;99.90;;;;;;5073547;28;20425;-51
2023/04/11 10:42:26;;;;;;;8.98;1.50;;;10.90;99.90;;;;;;5073494;28;20169;-54
2023/04/11 10:45:20;;;;;;;7.82;1.42;;;11.10;99.90;;;;;;5074136;28;20121;-54
2023/04/11 10:47:55;;;;;;;9.93;1.75;;;11.30;99.90;;;;;;5070238;28;20045;-54
2023/04/11 10:50:27;;;;;;;9.48;1.77;;;11.50;99.90;;;;;;5069265;28;20048;-58
2023/04/11 10:52:56;;;;;;;9.00;1.80;;;11.60;99.90;;;;;;5070067;28;20041;-54
2023/04/11 10:55:23;;;;;;;9.57;1.55;;;11.60;99.90;;;;;;5067315;28;20044;-52
2023/04/11 10:58:15;;;;;;;8.02;1.30;;;11.30;99.90;;;;;;5064144;28;20042;-53
2023/04/11 11:00:50;;;;;;;9.95;1.40;;;11.20;99.90;;;;;;5072327;28;20060;-55
2023/04/11 11:03:17;;;;;;;9.52;1.33;;;11.30;99.90;;;;;;5074371;28;20032;-54
2023/04/11 11:05:43;;;;;;;8.05;2.13;;;11.40;99.90;;;;;;5077049;28;20066;-57
2023/04/11 11:08:09;;;;;;;10.40;1.55;;;11.50;99.90;;;;;;5074967;28;20032;-57
2023/04/11 11:10:36;;;;;;;10.45;2.63;;;11.60;99.90;;;;;;5075925;28;20044;-55
2023/04/11 11:13:02;;;;;;;11.45;2.40;;;11.50;99.90;;;;;;5074933;28;20044;-56
2023/04/11 11:15:28;;;;;;;12.48;2.72;;;11.30;99.90;;;;;;5074911;28;20492;-57
2023/04/11 11:17:54;;;;;;;9.65;2.10;;;11.60;99.90;;;;;;5075396;28;20071;-55
2023/04/11 11:20:20;;;;;;;9.65;2.05;;;11.80;99.90;;;;;;5074949;28;20483;-52
2023/04/11 11:23:05;;;;;;;14.80;2.50;;;12.10;99.90;;;;;;5073487;28;20080;-55
2023/04/11 11:25:31;;;;;;;9.23;2.10;;;12.30;99.90;;;;;;5073059;28;20072;-56
2023/04/11 11:28:06;;;;;;;7.28;1.40;;;12.40;99.90;;;;;;5076049;28;20133;-52
2023/04/11 11:30:36;;;;;;;10.27;2.35;;;12.40;99.90;;;;;;5075313;28;20033;-54
2023/04/11 11:33:17;;;;;;;11.68;2.60;;;12.50;99.90;;;;;;5074760;28;20032;-56
2023/04/11 11:36:04;;;;;;;10.32;2.35;;;12.50;99.90;;;;;;5074305;28;20044;-51
2023/04/11 11:38:30;;;;;;;5.70;1.77;;;12.60;99.90;;;;;;5074938;28;20040;-52
2023/04/11 11:40:57;;;;;;;7.78;1.70;;;12.80;99.90;;;;;;5075848;28;20478;-54
2023/04/11 11:43:28;;;;;;;7.40;1.52;;;12.90;99.90;;;;;;5075214;28;20032;-53
2023/04/11 11:46:13;;;;;;;8.18;1.95;;;12.90;99.90;;;;;;5073614;28;20590;-53
2023/04/11 11:48:39;;;;;;;;;;;12.90;99.90;;;;;;5074605;28;20111;-56
2023/04/11 11:51:05;;;;;;;10.52;2.15;;;12.70;99.90;;;;;;5076670;28;20007;-56
2023/04/11 11:53:31;;;;;;;8.95;2.30;;;12.50;99.90;;;;;;5072784;28;20426;-55
2023/04/11 11:55:57;;;;;;;9.07;1.83;;;12.30;99.90;;;;;;5069513;28;20051;-51
2023/04/11 11:58:23;;;;;;;9.00;1.75;;;12.40;99.90;;;;;;5070820;28;20044;-57
2023/04/11 12:00:50;;;;;;;6.07;1.77;;;12.50;99.90;;;;;;5069960;28;20048;-56
2023/04/11 12:03:22;;;;;;;6.65;1.95;;;12.30;99.90;;;;;;5060716;28;20074;-52
2023/04/11 12:05:50;;;;;;;9.25;1.83;;;12.40;99.90;;;;;;5066922;28;20048;-55
2023/04/11 12:08:19;;;;;;;6.18;1.52;;;12.40;99.90;;;;;;5069829;28;20048;-52
2023/04/11 12:10:46;;;;;;;6.90;1.65;;;12.50;99.90;;;;;;5070302;28;20044;-53
2023/04/11 12:13:15;;;;;;;9.27;2.03;;;12.60;99.90;;;;;;5069769;28;20041;-53
2023/04/11 12:15:44;;;;;;;10.60;2.22;;;12.80;99.90;;;;;;5068716;28;20426;-56
2023/04/11 12:18:10;;;;;;;8.40;1.73;;;13.10;99.90;;;;;;5069834;28;20039;-55
2023/04/11 12:20:36;;;;;;;11.30;2.17;;;13.30;99.90;;;;;;5069728;28;20048;-53
2023/04/11 12:23:01;;;;;;;8.50;1.95;;;13.50;99.90;;;;;;5071497;28;20048;-53
2023/04/11 12:25:27;;;;;;;8.48;1.70;;;13.70;99.90;;;;;;5071441;28;20044;-54
2023/04/11 12:27:53;;;;;;;7.65;1.80;;;13.80;99.90;;;;;;5070212;28;20045;-49
2023/04/11 12:30:19;;;;;;;7.40;1.58;;;13.70;99.90;;;;;;5070903;28;20048;-51
2023/04/11 12:32:45;;;;;;;11.52;2.13;;;13.60;99.90;;;;;;5070239;28;20036;-57
2023/04/11 12:35:11;;;;;;;10.40;2.13;;;13.70;99.90;;;;;;5070778;28;20095;-55
2023/04/11 12:37:37;;;;;;;9.15;2.40;;;13.50;99.90;;;;;;5070175;28;20109;-54
2023/04/11 12:40:10;;;;;;;8.60;2.03;;;13.10;99.90;;;;;;5071450;28;20028;-51
2023/04/11 12:42:40;;;;;;;14.43;2.00;;;12.90;99.90;;;;;;5070068;28;20506;-56
2023/04/11 12:45:07;;;;;;;8.13;2.00;;;12.90;99.90;;;;;;5071342;28;20460;-52
2023/04/11 12:47:33;;;;;;;7.82;1.88;;;13.10;99.90;;;;;;5070687;28;20040;-56
2023/04/11 12:49:59;;;;;;;8.18;1.75;;;13.20;99.90;;;;;;5071332;28;20029;-53
2023/04/11 12:52:25;;;;;;;8.13;2.45;;;13.30;99.90;;;;;;5071256;28;20085;-55
2023/04/11 12:54:50;;;;;;;9.45;1.63;;;13.30;99.90;;;;;;5070950;28;20107;-53